createdAt,value
2017-04-13T00:00:08.697Z,731.48
2017-04-13T00:01:08.677Z,731.71
2017-04-13T00:02:08.660Z,731.72
2017-04-13T00:03:08.643Z,731.67
2017-04-13T00:04:08.627Z,731.5
2017-04-13T00:05:08.609Z,731.58
2017-04-13T00:06:08.591Z,731.61
2017-04-13T00:07:08.576Z,731.62
2017-04-13T00:08:08.556Z,731.54
2017-04-13T00:09:08.540Z,731.64
2017-04-13T00:10:08.523Z,731.2
2017-04-13T00:11:08.506Z,731.39
2017-04-13T00:12:08.489Z,731.09
2017-04-13T00:13:08.471Z,731.48
2017-04-13T00:14:08.454Z,731.54
2017-04-13T00:15:08.437Z,731.3
2017-04-13T00:16:08.420Z,731.29
2017-04-13T00:17:08.404Z,730.98
2017-04-13T00:18:08.387Z,731.5
2017-04-13T00:19:08.369Z,731.46
2017-04-13T00:20:08.351Z,731.41
2017-04-13T00:21:08.334Z,731.59
2017-04-13T00:22:08.317Z,731.65
2017-04-13T00:23:08.299Z,730.92
2017-04-13T00:24:08.283Z,731.02
2017-04-13T00:25:08.265Z,731.38
2017-04-13T00:26:08.247Z,731.36
2017-04-13T00:27:08.231Z,731.43
2017-04-13T00:28:08.212Z,731.33
2017-04-13T00:29:08.197Z,731.38
2017-04-13T00:30:08.178Z,731.44
2017-04-13T00:31:08.161Z,731.42
2017-04-13T00:32:08.144Z,731.29
2017-04-13T00:33:08.127Z,731.35
2017-04-13T00:34:08.109Z,731.18
2017-04-13T00:35:08.094Z,730.97
2017-04-13T00:36:08.075Z,731.26
2017-04-13T00:37:08.058Z,731.22
2017-04-13T00:38:08.041Z,731.14
2017-04-13T00:39:08.023Z,731.1
2017-04-13T00:40:08.005Z,731.15
2017-04-13T00:41:07.988Z,731.34
2017-04-13T00:42:07.969Z,731.14
2017-04-13T00:43:07.954Z,731
2017-04-13T00:44:07.936Z,731.02
2017-04-13T00:45:07.918Z,731.2
2017-04-13T00:46:07.906Z,731.07
2017-04-13T00:47:07.883Z,730.92
2017-04-13T00:48:07.868Z,730.88
2017-04-13T00:49:07.849Z,731.12
2017-04-13T00:50:07.831Z,731.22
2017-04-13T00:51:07.814Z,731.1
2017-04-13T00:52:07.797Z,731.03
2017-04-13T00:53:07.779Z,730.99
2017-04-13T00:54:07.763Z,731.21
2017-04-13T00:55:07.744Z,730.97
2017-04-13T00:56:07.727Z,731.23
2017-04-13T00:57:07.710Z,731.18
2017-04-13T00:58:07.691Z,731.18
2017-04-13T00:59:07.673Z,731.26
2017-04-13T01:00:07.655Z,731.01
2017-04-13T01:01:07.638Z,730.96
2017-04-13T01:02:07.623Z,731.01
2017-04-13T01:03:07.604Z,730.99
2017-04-13T01:04:07.586Z,730.96
2017-04-13T01:05:07.570Z,731.02
2017-04-13T01:06:07.553Z,731.08
2017-04-13T01:07:07.533Z,730.5
2017-04-13T01:08:07.516Z,731.03
2017-04-13T01:09:07.501Z,731.14
2017-04-13T01:10:07.482Z,730.81
2017-04-13T01:11:07.463Z,730.78
2017-04-13T01:12:07.447Z,730.82
2017-04-13T01:13:07.429Z,731.05
2017-04-13T01:14:07.411Z,730.82
2017-04-13T01:15:07.395Z,730.66
2017-04-13T01:16:07.377Z,730.7
2017-04-13T01:17:07.359Z,730.67
2017-04-13T01:18:07.340Z,730.86
2017-04-13T01:19:07.322Z,730.72
2017-04-13T01:20:07.306Z,730.84
2017-04-13T01:21:07.287Z,730.76
2017-04-13T01:22:07.270Z,730.61
2017-04-13T01:23:07.254Z,730.9
2017-04-13T01:24:07.240Z,730.7
2017-04-13T01:25:07.217Z,730.71
2017-04-13T01:26:07.200Z,731.04
2017-04-13T01:27:07.185Z,730.44
2017-04-13T01:28:07.170Z,731.06
2017-04-13T01:29:07.149Z,730.76
2017-04-13T01:30:07.131Z,730.94
2017-04-13T01:31:07.113Z,730.82
2017-04-13T01:32:07.095Z,730.74
2017-04-13T01:33:07.078Z,730.74
2017-04-13T01:34:07.058Z,730.79
2017-04-13T01:35:07.042Z,730.91
2017-04-13T01:36:07.024Z,730.74
2017-04-13T01:37:07.013Z,730.87
2017-04-13T01:38:06.989Z,730.94
2017-04-13T01:39:06.971Z,731
2017-04-13T01:40:06.957Z,730.77
2017-04-13T01:41:06.936Z,730.91
2017-04-13T01:42:06.918Z,730.54
2017-04-13T01:43:06.899Z,730.37
2017-04-13T01:44:06.882Z,730.79
2017-04-13T01:45:06.865Z,730.92
2017-04-13T01:46:06.848Z,730.62
2017-04-13T01:47:06.830Z,730.49
2017-04-13T01:48:06.844Z,730.52
2017-04-13T01:49:06.794Z,730.63
2017-04-13T01:50:06.775Z,730.73
2017-04-13T01:51:06.757Z,730.75
2017-04-13T01:52:06.742Z,730.41
2017-04-13T01:53:06.722Z,730.47
2017-04-13T01:54:06.703Z,730.55
2017-04-13T01:55:06.687Z,730.54
2017-04-13T01:56:06.669Z,730.65
2017-04-13T01:57:06.651Z,730.33
2017-04-13T01:58:06.631Z,730.36
2017-04-13T01:59:06.615Z,730.46
2017-04-13T02:00:06.597Z,730.44
2017-04-13T02:01:06.579Z,730.33
2017-04-13T02:02:06.562Z,730.36
2017-04-13T02:03:06.543Z,730.39
2017-04-13T02:04:06.525Z,730.43
2017-04-13T02:05:06.508Z,730.59
2017-04-13T02:06:06.489Z,730.5
2017-04-13T02:07:06.475Z,730.42
2017-04-13T02:08:06.454Z,730.37
2017-04-13T02:09:06.436Z,730.33
2017-04-13T02:10:06.419Z,730.21
2017-04-13T02:11:06.401Z,730.36
2017-04-13T02:12:06.382Z,730.15
2017-04-13T02:13:06.365Z,730.48
2017-04-13T02:14:06.348Z,730.31
2017-04-13T02:15:06.330Z,730.31
2017-04-13T02:16:06.310Z,730.24
2017-04-13T02:17:06.292Z,730.19
2017-04-13T02:18:06.274Z,729.88
2017-04-13T02:19:06.258Z,730.69
2017-04-13T02:20:06.237Z,730.25
2017-04-13T02:21:06.220Z,730.39
2017-04-13T02:22:06.201Z,730.47
2017-04-13T02:23:06.184Z,730.27
2017-04-13T02:24:06.166Z,730.18
2017-04-13T02:25:06.147Z,730.26
2017-04-13T02:26:06.130Z,730.09
2017-04-13T02:27:06.110Z,730.09
2017-04-13T02:28:06.092Z,729.64
2017-04-13T02:29:06.074Z,730.14
2017-04-13T02:30:06.058Z,730.08
2017-04-13T02:31:06.037Z,730.16
2017-04-13T02:32:06.021Z,730.11
2017-04-13T02:33:06.003Z,730.33
2017-04-13T02:34:05.982Z,730.08
2017-04-13T02:35:05.965Z,730.44
2017-04-13T02:36:05.948Z,730.38
2017-04-13T02:37:05.930Z,730.08
2017-04-13T02:38:05.911Z,730.16
2017-04-13T02:39:05.893Z,730.2
2017-04-13T02:40:05.875Z,730.03
2017-04-13T02:41:05.857Z,729.97
2017-04-13T02:42:05.837Z,730.31
2017-04-13T02:43:05.819Z,730.26
2017-04-13T02:44:05.801Z,730.31
2017-04-13T02:45:05.783Z,730.37
2017-04-13T02:46:05.765Z,730.31
2017-04-13T02:47:05.747Z,730.3
2017-04-13T02:48:05.729Z,730.54
2017-04-13T02:49:05.710Z,730.22
2017-04-13T02:50:05.690Z,730.16
2017-04-13T02:51:05.675Z,730.12
2017-04-13T02:52:05.655Z,730.28
2017-04-13T02:53:05.636Z,730.21
2017-04-13T02:54:05.618Z,730.29
2017-04-13T02:55:05.604Z,730.28
2017-04-13T02:56:05.583Z,730.09
2017-04-13T02:57:05.573Z,730.07
2017-04-13T02:58:05.546Z,730.31
2017-04-13T02:59:05.529Z,730.29
2017-04-13T03:00:05.511Z,730.11
2017-04-13T03:01:05.493Z,730.33
2017-04-13T03:02:05.475Z,730.36
2017-04-13T03:03:05.457Z,730.21
2017-04-13T03:04:05.439Z,730.22
2017-04-13T03:05:05.421Z,729.96
2017-04-13T03:06:05.402Z,729.88
2017-04-13T03:07:05.385Z,730.23
2017-04-13T03:08:05.367Z,730.1
2017-04-13T03:09:05.347Z,730.12
2017-04-13T03:10:05.329Z,729.98
2017-04-13T03:11:05.310Z,729.9
2017-04-13T03:12:05.293Z,730.07
2017-04-13T03:13:05.274Z,730.07
2017-04-13T03:14:05.257Z,730.15
2017-04-13T03:15:05.238Z,729.88
2017-04-13T03:16:05.219Z,729.9
2017-04-13T03:17:05.202Z,730.04
2017-04-13T03:18:05.182Z,730.06
2017-04-13T03:19:05.164Z,729.87
2017-04-13T03:20:05.145Z,729.87
2017-04-13T03:21:05.128Z,729.92
2017-04-13T03:22:05.108Z,729.87
2017-04-13T03:23:05.091Z,730.02
2017-04-13T03:24:05.073Z,729.84
2017-04-13T03:25:05.054Z,729.9
2017-04-13T03:26:05.035Z,729.73
2017-04-13T03:27:05.017Z,729.83
2017-04-13T03:28:04.999Z,729.98
2017-04-13T03:29:04.981Z,730.2
2017-04-13T03:30:04.962Z,730.02
2017-04-13T03:31:04.944Z,730.04
2017-04-13T03:32:04.926Z,730.05
2017-04-13T03:33:04.907Z,729.9
2017-04-13T03:34:04.889Z,729.94
2017-04-13T03:35:04.874Z,729.99
2017-04-13T03:36:04.853Z,730.03
2017-04-13T03:37:04.834Z,730.1
2017-04-13T03:38:04.816Z,730
2017-04-13T03:39:04.798Z,730.02
2017-04-13T03:40:04.779Z,730.03
2017-04-13T03:41:04.761Z,729.98
2017-04-13T03:42:04.743Z,729.92
2017-04-13T03:43:04.726Z,729.99
2017-04-13T03:44:04.707Z,729.81
2017-04-13T03:45:04.688Z,729.95
2017-04-13T03:46:04.672Z,730.04
2017-04-13T03:47:04.653Z,730.07
2017-04-13T03:48:04.633Z,730.12
2017-04-13T03:49:04.616Z,729.93
2017-04-13T03:50:04.596Z,730.1
2017-04-13T03:51:04.578Z,729.78
2017-04-13T03:52:04.559Z,729.88
2017-04-13T03:53:04.540Z,729.97
2017-04-13T03:54:04.522Z,730
2017-04-13T03:55:04.501Z,730.07
2017-04-13T03:56:04.484Z,729.78
2017-04-13T03:57:04.467Z,729.81
2017-04-13T03:58:04.448Z,730
2017-04-13T03:59:04.430Z,729.88
2017-04-13T04:00:04.411Z,729.91
2017-04-13T04:01:04.391Z,729.72
2017-04-13T04:02:04.372Z,729.57
2017-04-13T04:03:04.354Z,729.79
2017-04-13T04:04:04.335Z,729.87
2017-04-13T04:05:04.318Z,729.89
2017-04-13T04:06:04.297Z,730.26
2017-04-13T04:07:04.278Z,730.06
2017-04-13T04:08:04.261Z,729.74
2017-04-13T04:09:04.240Z,729.81
2017-04-13T04:10:04.222Z,729.63
2017-04-13T04:11:04.203Z,729.58
2017-04-13T04:12:04.225Z,729.73
2017-04-13T04:13:04.165Z,729.7
2017-04-13T04:14:04.147Z,729.79
2017-04-13T04:15:04.131Z,729.55
2017-04-13T04:16:04.109Z,729.83
2017-04-13T04:17:04.090Z,729.65
2017-04-13T04:18:04.070Z,729.68
2017-04-13T04:19:04.052Z,729.52
2017-04-13T04:20:04.033Z,729.7
2017-04-13T04:21:04.014Z,729.56
2017-04-13T04:22:03.996Z,729.47
2017-04-13T04:23:03.976Z,729.66
2017-04-13T04:24:03.956Z,729.58
2017-04-13T04:25:03.938Z,729.6
2017-04-13T04:26:03.918Z,729.76
2017-04-13T04:27:03.899Z,729.55
2017-04-13T04:28:03.883Z,730.04
2017-04-13T04:29:03.863Z,729.68
2017-04-13T04:30:03.842Z,729.68
2017-04-13T04:31:03.823Z,729.83
2017-04-13T04:32:03.805Z,729.8
2017-04-13T04:33:03.785Z,729.62
2017-04-13T04:34:03.767Z,729.7
2017-04-13T04:35:03.748Z,729.74
2017-04-13T04:36:03.729Z,729.64
2017-04-13T04:37:03.709Z,729.75
2017-04-13T04:38:03.690Z,729.68
2017-04-13T04:39:03.671Z,729.74
2017-04-13T04:40:03.653Z,729.79
2017-04-13T04:41:03.633Z,729.46
2017-04-13T04:42:03.613Z,729.62
2017-04-13T04:43:03.596Z,729.58
2017-04-13T04:44:03.575Z,729.66
2017-04-13T04:45:03.556Z,729.72
2017-04-13T04:46:03.538Z,729.77
2017-04-13T04:47:03.520Z,729.68
2017-04-13T04:48:03.500Z,729.89
2017-04-13T04:49:03.481Z,729.57
2017-04-13T04:50:03.460Z,729.52
2017-04-13T04:51:03.444Z,729.74
2017-04-13T04:52:03.424Z,729.69
2017-04-13T04:53:03.404Z,729.58
2017-04-13T04:54:03.386Z,729.77
2017-04-13T04:55:03.367Z,729.55
2017-04-13T04:56:03.349Z,729.82
2017-04-13T04:57:03.328Z,729.74
2017-04-13T04:58:03.310Z,729.61
2017-04-13T04:59:03.292Z,729.35
2017-04-13T05:00:03.274Z,729.58
2017-04-13T05:01:03.254Z,730
2017-04-13T05:02:03.237Z,729.8
2017-04-13T05:03:03.216Z,729.81
2017-04-13T05:04:03.197Z,729.68
2017-04-13T05:05:03.178Z,729.86
2017-04-13T05:06:03.162Z,729.75
2017-04-13T05:07:03.142Z,729.85
2017-04-13T05:08:03.120Z,729.91
2017-04-13T05:09:03.102Z,729.71
2017-04-13T05:10:03.083Z,729.8
2017-04-13T05:11:03.064Z,729.62
2017-04-13T05:12:03.048Z,730.09
2017-04-13T05:13:03.025Z,729.94
2017-04-13T05:14:03.007Z,729.69
2017-04-13T05:15:02.986Z,729.75
2017-04-13T05:16:02.967Z,729.83
2017-04-13T05:17:02.948Z,730.23
2017-04-13T05:18:02.930Z,729.8
2017-04-13T05:19:02.910Z,729.88
2017-04-13T05:20:02.892Z,730.13
2017-04-13T05:21:02.871Z,729.97
2017-04-13T05:22:02.852Z,729.71
2017-04-13T05:23:02.832Z,729.6
2017-04-13T05:24:02.814Z,729.2
2017-04-13T05:25:02.795Z,729.8
2017-04-13T05:26:02.773Z,729.86
2017-04-13T05:27:02.754Z,729.96
2017-04-13T05:28:02.735Z,729.95
2017-04-13T05:29:02.718Z,729.77
2017-04-13T05:30:02.697Z,729.68
2017-04-13T05:31:02.677Z,729.95
2017-04-13T05:32:02.663Z,729.93
2017-04-13T05:33:02.639Z,729.64
2017-04-13T05:34:02.669Z,729.84
2017-04-13T05:35:02.604Z,729.86
2017-04-13T05:36:02.582Z,729.56
2017-04-13T05:37:02.562Z,729.78
2017-04-13T05:38:02.544Z,729.58
2017-04-13T05:39:02.524Z,729.42
2017-04-13T05:40:02.507Z,729.39
2017-04-13T05:41:02.485Z,729.72
2017-04-13T05:42:02.467Z,729.33
2017-04-13T05:43:02.447Z,729.46
2017-04-13T05:44:02.427Z,729.2
2017-04-13T05:45:02.410Z,729.78
2017-04-13T05:46:02.390Z,729.75
2017-04-13T05:47:02.370Z,729.68
2017-04-13T05:48:02.349Z,729.73
2017-04-13T05:49:02.332Z,729.61
2017-04-13T05:50:02.312Z,729.66
2017-04-13T05:51:02.292Z,729.73
2017-04-13T05:52:02.273Z,729.65
2017-04-13T05:53:02.253Z,729.8
2017-04-13T05:54:02.232Z,729.82
2017-04-13T05:55:02.218Z,730.03
2017-04-13T05:56:02.195Z,729.63
2017-04-13T05:57:02.175Z,729.88
2017-04-13T05:58:02.157Z,729.75
2017-04-13T05:59:02.136Z,729.46
2017-04-13T06:00:02.115Z,729.54
2017-04-13T06:01:02.097Z,729.55
2017-04-13T06:02:02.076Z,729.62
2017-04-13T06:03:02.056Z,729.69
2017-04-13T06:04:02.067Z,729.71
2017-04-13T06:05:02.018Z,729.99
2017-04-13T06:06:01.997Z,729.89
2017-04-13T06:07:01.979Z,729.48
2017-04-13T06:08:01.959Z,729.62
2017-04-13T06:09:01.941Z,729.53
2017-04-13T06:10:01.920Z,729.64
2017-04-13T06:11:01.901Z,729.42
2017-04-13T06:12:01.883Z,729.71
2017-04-13T06:13:01.863Z,729.95
2017-04-13T06:14:01.846Z,730.14
2017-04-13T06:15:01.826Z,730.02
2017-04-13T06:16:01.805Z,729.55
2017-04-13T06:17:01.786Z,729.76
2017-04-13T06:18:01.767Z,730.02
2017-04-13T06:19:01.785Z,729.66
2017-04-13T06:20:01.730Z,729.84
2017-04-13T06:21:01.710Z,729.75
2017-04-13T06:22:01.691Z,729.74
2017-04-13T06:23:01.673Z,730.03
2017-04-13T06:24:01.653Z,730.05
2017-04-13T06:25:01.634Z,729.98
2017-04-13T06:26:01.613Z,729.85
2017-04-13T06:27:01.594Z,729.64
2017-04-13T06:28:01.575Z,729.8
2017-04-13T06:29:01.556Z,729.92
2017-04-13T06:30:01.537Z,729.89
2017-04-13T06:31:01.517Z,729.89
2017-04-13T06:32:01.497Z,729.99
2017-04-13T06:33:01.478Z,729.86
2017-04-13T06:34:01.457Z,729.75
2017-04-13T06:35:01.439Z,730.09
2017-04-13T06:36:01.421Z,729.77
2017-04-13T06:37:01.399Z,729.39
2017-04-13T06:38:01.379Z,729.33
2017-04-13T06:39:01.361Z,729.77
2017-04-13T06:40:01.342Z,729.66
2017-04-13T06:41:01.329Z,729.67
2017-04-13T06:42:01.302Z,729.96
2017-04-13T06:43:01.283Z,729.86
2017-04-13T06:44:01.263Z,729.58
2017-04-13T06:45:01.244Z,729.8
2017-04-13T06:46:01.226Z,729.76
2017-04-13T06:47:01.204Z,729.77
2017-04-13T06:48:01.185Z,729.69
2017-04-13T06:49:01.166Z,729.88
2017-04-13T06:50:01.146Z,729.97
2017-04-13T06:51:01.128Z,729.7
2017-04-13T06:52:01.108Z,729.82
2017-04-13T06:53:01.089Z,730.33
2017-04-13T06:54:01.068Z,729.96
2017-04-13T06:55:01.050Z,729.95
2017-04-13T06:56:01.032Z,729.9
2017-04-13T06:57:01.011Z,729.72
2017-04-13T06:58:00.991Z,729.98
2017-04-13T06:59:00.972Z,729.97
2017-04-13T07:00:00.953Z,729.85
2017-04-13T07:01:00.933Z,729.66
2017-04-13T07:02:00.913Z,729.44
2017-04-13T07:03:00.894Z,729.73
2017-04-13T07:04:00.874Z,729.69
2017-04-13T07:05:00.853Z,729.85
2017-04-13T07:06:00.835Z,729.96
2017-04-13T07:07:00.815Z,729.78
2017-04-13T07:08:00.795Z,729.83
2017-04-13T07:09:00.776Z,729.82
2017-04-13T07:10:00.756Z,729.99
2017-04-13T07:11:00.737Z,729.78
2017-04-13T07:12:00.718Z,729.86
2017-04-13T07:13:00.694Z,729.74
2017-04-13T07:14:00.677Z,729.72
2017-04-13T07:15:00.658Z,730.02
2017-04-13T07:16:00.635Z,729.9
2017-04-13T07:17:00.616Z,730.06
2017-04-13T07:18:00.597Z,729.6
2017-04-13T07:19:00.577Z,730
2017-04-13T07:20:00.556Z,729.99
2017-04-13T07:21:00.538Z,730.14
2017-04-13T07:22:00.518Z,729.67
2017-04-13T07:23:00.497Z,729.8
2017-04-13T07:24:00.478Z,729.98
2017-04-13T07:25:00.458Z,729.96
2017-04-13T07:26:00.440Z,730
2017-04-13T07:27:00.419Z,730
2017-04-13T07:28:00.399Z,729.92
2017-04-13T07:29:00.379Z,729.77
2017-04-13T07:30:00.359Z,729.88
2017-04-13T07:31:00.339Z,729.74
2017-04-13T07:32:00.320Z,729.67
2017-04-13T07:33:00.301Z,730.07
2017-04-13T07:34:00.280Z,730.11
2017-04-13T07:35:00.262Z,729.8
2017-04-13T07:36:00.444Z,730.03
2017-04-13T07:37:00.222Z,729.85
2017-04-13T07:38:00.203Z,730.09
2017-04-13T07:39:00.181Z,729.98
2017-04-13T07:40:00.164Z,730.06
2017-04-13T07:41:00.143Z,730.09
2017-04-13T07:42:00.125Z,729.82
2017-04-13T07:43:00.105Z,729.95
2017-04-13T07:44:00.087Z,730.07
2017-04-13T07:45:00.066Z,730.07
2017-04-13T07:46:00.046Z,730.07
2017-04-13T07:47:00.031Z,730.35
2017-04-13T07:48:00.009Z,730.18
2017-04-13T07:48:59.989Z,730.17
2017-04-13T07:49:59.969Z,730.27
2017-04-13T07:50:59.952Z,729.87
2017-04-13T07:51:59.933Z,729.97
2017-04-13T07:52:59.913Z,730.02
2017-04-13T07:53:59.893Z,730.12
2017-04-13T07:54:59.875Z,730.26
2017-04-13T07:55:59.855Z,730.17
2017-04-13T07:56:59.838Z,730
2017-04-13T07:57:59.819Z,730.27
2017-04-13T07:58:59.800Z,730.1
2017-04-13T07:59:59.782Z,730.17
2017-04-13T08:00:59.762Z,729.97
2017-04-13T08:01:59.743Z,730.09
2017-04-13T08:02:59.724Z,730.14
2017-04-13T08:03:59.704Z,730.23
2017-04-13T08:04:59.686Z,730.07
2017-04-13T08:05:59.666Z,730.31
2017-04-13T08:06:59.647Z,730.37
2017-04-13T08:07:59.628Z,730.28
2017-04-13T08:08:59.610Z,730.3
2017-04-13T08:09:59.591Z,730.23
2017-04-13T08:10:59.573Z,730.11
2017-04-13T08:11:59.555Z,730.3
2017-04-13T08:12:59.535Z,729.99
2017-04-13T08:13:59.514Z,730.6
2017-04-13T08:14:59.500Z,730.41
2017-04-13T08:15:59.478Z,730.26
2017-04-13T08:16:59.459Z,730.08
2017-04-13T08:17:59.439Z,730.18
2017-04-13T08:18:59.421Z,730.11
2017-04-13T08:19:59.402Z,730.02
2017-04-13T08:20:59.384Z,730.2
2017-04-13T08:21:59.363Z,730.17
2017-04-13T08:22:59.345Z,730.46
2017-04-13T08:23:59.326Z,729.86
2017-04-13T08:24:59.305Z,730.22
2017-04-13T08:25:59.287Z,730.1
2017-04-13T08:26:59.267Z,730.24
2017-04-13T08:27:59.248Z,730.14
2017-04-13T08:28:59.227Z,730.13
2017-04-13T08:29:59.211Z,730.08
2017-04-13T08:30:59.189Z,730.14
2017-04-13T08:31:59.171Z,730.17
2017-04-13T08:32:59.150Z,730.12
2017-04-13T08:33:59.335Z,730.29
2017-04-13T08:34:59.113Z,730.41
2017-04-13T08:35:59.091Z,730.24
2017-04-13T08:36:59.074Z,730.58
2017-04-13T08:37:59.054Z,730.57
2017-04-13T08:38:59.034Z,730.48
2017-04-13T08:39:59.015Z,730.29
2017-04-13T08:40:58.996Z,730.17
2017-04-13T08:41:58.978Z,730.24
2017-04-13T08:42:58.959Z,730.5
2017-04-13T08:43:58.940Z,730.06
2017-04-13T08:44:58.921Z,730.23
2017-04-13T08:45:58.902Z,730.5
2017-04-13T08:46:58.882Z,729.95
2017-04-13T08:47:58.863Z,730.47
2017-04-13T08:48:58.844Z,730.24
2017-04-13T08:49:58.825Z,730.45
2017-04-13T08:50:58.804Z,730.55
2017-04-13T08:51:58.785Z,730.06
2017-04-13T08:52:58.767Z,730.36
2017-04-13T08:53:58.747Z,730.33
2017-04-13T08:54:58.728Z,730.33
2017-04-13T08:55:58.709Z,730.17
2017-04-13T08:56:58.690Z,730.33
2017-04-13T08:57:58.669Z,730.16
2017-04-13T08:58:58.651Z,730.15
2017-04-13T08:59:58.630Z,730.27
2017-04-13T09:00:58.612Z,730.44
2017-04-13T09:01:58.592Z,730.44
2017-04-13T09:02:58.572Z,730.48
2017-04-13T09:03:58.554Z,730.17
2017-04-13T09:04:58.533Z,730.61
2017-04-13T09:05:58.515Z,730.3
2017-04-13T09:06:58.497Z,730.38
2017-04-13T09:07:58.478Z,730.5
2017-04-13T09:08:58.457Z,730.4
2017-04-13T09:09:58.439Z,730.17
2017-04-13T09:10:58.422Z,730.61
2017-04-13T09:11:58.403Z,730.48
2017-04-13T09:12:58.382Z,730.34
2017-04-13T09:13:58.363Z,730.42
2017-04-13T09:14:58.346Z,729.93
2017-04-13T09:15:58.326Z,730.39
2017-04-13T09:16:58.307Z,730.6
2017-04-13T09:17:58.289Z,730.58
2017-04-13T09:18:58.271Z,730.22
2017-04-13T09:19:58.250Z,730.3
2017-04-13T09:20:58.232Z,730.75
2017-04-13T09:21:58.213Z,730.51
2017-04-13T09:22:58.194Z,730.37
2017-04-13T09:23:58.175Z,730.78
2017-04-13T09:24:58.156Z,730.71
2017-04-13T09:25:58.139Z,730.59
2017-04-13T09:26:58.119Z,730.57
2017-04-13T09:27:58.099Z,730.33
2017-04-13T09:28:58.082Z,730.82
2017-04-13T09:29:58.067Z,730.57
2017-04-13T09:30:58.044Z,730.29
2017-04-13T09:31:58.025Z,730.66
2017-04-13T09:32:58.009Z,730.8
2017-04-13T09:33:57.992Z,730.47
2017-04-13T09:34:57.970Z,730.27
2017-04-13T09:35:57.951Z,730.33
2017-04-13T09:36:57.931Z,730.47
2017-04-13T09:37:57.912Z,730.57
2017-04-13T09:38:57.895Z,730.44
2017-04-13T09:39:57.875Z,730.49
2017-04-13T09:40:57.857Z,730.65
2017-04-13T09:41:57.837Z,730.68
2017-04-13T09:42:57.818Z,730.56
2017-04-13T09:43:57.800Z,730.53
2017-04-13T09:44:57.781Z,730.55
2017-04-13T09:45:57.763Z,730.65
2017-04-13T09:46:57.743Z,730.13
2017-04-13T09:47:57.726Z,730.43
2017-04-13T09:48:57.706Z,730.44
2017-04-13T09:49:57.686Z,730.38
2017-04-13T09:50:57.669Z,730.59
2017-04-13T09:51:57.650Z,730.61
2017-04-13T09:52:57.630Z,730.49
2017-04-13T09:53:57.611Z,730.46
2017-04-13T09:54:57.592Z,730.59
2017-04-13T09:55:57.575Z,730.88
2017-04-13T09:56:57.555Z,730.48
2017-04-13T09:57:57.538Z,730.58
2017-04-13T09:58:57.519Z,730.77
2017-04-13T09:59:57.499Z,730.63
2017-04-13T10:00:57.482Z,730.82
2017-04-13T10:01:57.464Z,730.75
2017-04-13T10:02:57.445Z,730.76
2017-04-13T10:03:57.425Z,730.71
2017-04-13T10:04:57.407Z,730.53
2017-04-13T10:05:57.390Z,730.64
2017-04-13T10:06:57.371Z,730.56
2017-04-13T10:07:57.352Z,730.81
2017-04-13T10:08:57.333Z,730.74
2017-04-13T10:09:57.315Z,730.99
2017-04-13T10:10:57.295Z,730.72
2017-04-13T10:11:57.277Z,730.74
2017-04-13T10:12:57.259Z,730.76
2017-04-13T10:13:57.240Z,730.67
2017-04-13T10:14:57.220Z,730.98
2017-04-13T10:15:57.201Z,730.77
2017-04-13T10:16:57.187Z,730.58
2017-04-13T10:17:57.162Z,730.72
2017-04-13T10:18:57.145Z,730.62
2017-04-13T10:19:57.126Z,730.51
2017-04-13T10:20:57.107Z,730.56
2017-04-13T10:21:57.088Z,730.77
2017-04-13T10:22:57.070Z,730.78
2017-04-13T10:23:57.052Z,730.58
2017-04-13T10:24:57.033Z,730.97
2017-04-13T10:25:57.012Z,730.66
2017-04-13T10:26:56.998Z,730.93
2017-04-13T10:27:56.975Z,730.87
2017-04-13T10:28:56.955Z,730.87
2017-04-13T10:29:56.937Z,730.85
2017-04-13T10:30:56.918Z,730.66
2017-04-13T10:31:56.899Z,730.48
2017-04-13T10:32:56.880Z,730.72
2017-04-13T10:33:56.862Z,730.85
2017-04-13T10:34:56.843Z,730.81
2017-04-13T10:35:56.824Z,730.73
2017-04-13T10:36:56.804Z,730.88
2017-04-13T10:37:56.785Z,731.15
2017-04-13T10:38:56.766Z,730.92
2017-04-13T10:39:56.747Z,730.94
2017-04-13T10:40:56.729Z,730.65
2017-04-13T10:41:56.708Z,730.85
2017-04-13T10:42:56.697Z,730.87
2017-04-13T10:43:56.670Z,730.96
2017-04-13T10:44:56.652Z,730.81
2017-04-13T10:45:56.634Z,730.9
2017-04-13T10:46:56.615Z,730.82
2017-04-13T10:47:56.596Z,731.05
2017-04-13T10:48:56.577Z,730.8
2017-04-13T10:49:56.558Z,730.95
2017-04-13T10:50:56.540Z,730.68
2017-04-13T10:51:56.522Z,730.71
2017-04-13T10:52:56.502Z,730.8
2017-04-13T10:53:56.483Z,730.73
2017-04-13T10:54:56.463Z,730.65
2017-04-13T10:55:56.446Z,730.9
2017-04-13T10:56:56.428Z,730.87
2017-04-13T10:57:56.408Z,730.96
2017-04-13T10:58:56.390Z,730.74
2017-04-13T10:59:56.372Z,730.53
2017-04-13T11:00:56.354Z,730.84
2017-04-13T11:01:56.334Z,730.82
2017-04-13T11:02:56.317Z,730.83
2017-04-13T11:03:56.297Z,730.8
2017-04-13T11:04:56.279Z,730.65
2017-04-13T11:05:56.261Z,730.91
2017-04-13T11:06:56.243Z,731.02
2017-04-13T11:07:56.224Z,731
2017-04-13T11:08:56.206Z,731.03
2017-04-13T11:09:56.188Z,731.09
2017-04-13T11:10:56.170Z,730.84
2017-04-13T11:11:56.153Z,730.8
2017-04-13T11:12:56.133Z,731.06
2017-04-13T11:13:56.116Z,730.98
2017-04-13T11:14:56.096Z,731.02
2017-04-13T11:15:56.084Z,731.01
2017-04-13T11:16:56.062Z,730.89
2017-04-13T11:17:56.044Z,730.92
2017-04-13T11:18:56.027Z,730.92
2017-04-13T11:19:56.008Z,730.89
2017-04-13T11:20:55.989Z,730.91
2017-04-13T11:21:55.973Z,731.04
2017-04-13T11:22:55.956Z,730.99
2017-04-13T11:23:55.935Z,730.76
2017-04-13T11:24:55.919Z,730.92
2017-04-13T11:25:55.901Z,731.08
2017-04-13T11:26:55.885Z,730.95
2017-04-13T11:27:55.865Z,731.18
2017-04-13T11:28:55.850Z,730.9
2017-04-13T11:29:55.831Z,730.81
2017-04-13T11:30:55.813Z,730.81
2017-04-13T11:31:55.793Z,731.08
2017-04-13T11:32:55.776Z,730.75
2017-04-13T11:33:55.760Z,731.09
2017-04-13T11:34:55.741Z,730.95
2017-04-13T11:35:55.724Z,730.79
2017-04-13T11:36:55.705Z,730.87
2017-04-13T11:37:55.688Z,730.84
2017-04-13T11:38:55.670Z,730.86
2017-04-13T11:39:55.651Z,730.8
2017-04-13T11:40:55.635Z,730.88
2017-04-13T11:41:55.617Z,731.04
2017-04-13T11:42:55.600Z,730.87
2017-04-13T11:43:55.583Z,730.97
2017-04-13T11:44:55.566Z,731.1
2017-04-13T11:45:55.547Z,730.95
2017-04-13T11:46:55.531Z,730.87
2017-04-13T11:47:55.513Z,730.83
2017-04-13T11:48:55.495Z,731.03
2017-04-13T11:49:55.478Z,731.22
2017-04-13T11:50:55.459Z,731.35
2017-04-13T11:51:55.443Z,730.95
2017-04-13T11:52:55.425Z,730.95
2017-04-13T11:53:55.407Z,730.92
2017-04-13T11:54:55.390Z,731.05
2017-04-13T11:55:55.372Z,730.96
2017-04-13T11:56:55.354Z,731.06
2017-04-13T11:57:55.336Z,731.16
2017-04-13T11:58:55.323Z,731.27
2017-04-13T11:59:55.303Z,731.24
2017-04-13T12:00:55.283Z,731.2
2017-04-13T12:01:55.265Z,731.29
2017-04-13T12:02:55.249Z,731.43
2017-04-13T12:03:55.229Z,731.17
2017-04-13T12:04:55.211Z,731.12
2017-04-13T12:05:55.194Z,731.36
2017-04-13T12:06:55.176Z,731.16
2017-04-13T12:07:55.156Z,731.22
2017-04-13T12:08:55.144Z,731.18
2017-04-13T12:09:55.121Z,731.13
2017-04-13T12:10:55.103Z,731.01
2017-04-13T12:11:55.084Z,730.97
2017-04-13T12:12:55.066Z,731.11
2017-04-13T12:13:55.047Z,731.16
2017-04-13T12:14:55.028Z,731.11
2017-04-13T12:15:55.009Z,731.1
2017-04-13T12:16:54.992Z,731.26
2017-04-13T12:17:54.973Z,731.16
2017-04-13T12:18:54.953Z,731.22
2017-04-13T12:19:54.935Z,731.09
2017-04-13T12:20:54.916Z,731.18
2017-04-13T12:21:54.899Z,731.2
2017-04-13T12:22:54.880Z,731.16
2017-04-13T12:23:54.862Z,731.14
2017-04-13T12:24:54.843Z,731.31
2017-04-13T12:25:54.825Z,730.99
2017-04-13T12:26:54.805Z,731
2017-04-13T12:27:54.786Z,731.13
2017-04-13T12:28:54.770Z,731.26
2017-04-13T12:29:54.750Z,731.29
2017-04-13T12:30:54.732Z,731.43